sensor_id;sensor_type;location;lat;lon;timestamp;noise_LAeq;noise_LA_min;noise_LA_max;noise_LA01;noise_LA95
75467;Laerm;64050;50.634;3.062;2023-04-07T00:01:31;50.17;41.30;55.37;;
75467;Laerm;64050;50.634;3.062;2023-04-07T00:03:57;45.14;38.24;58.63;;
75467;Laerm;64050;50.634;3.062;2023-04-07T00:06:22;45.99;37.92;62.89;;
75467;Laerm;64050;50.634;3.062;2023-04-07T00:08:47;45.26;37.20;58.76;;
75467;Laerm;64050;50.634;3.062;2023-04-07T00:11:12;45.19;36.49;54.81;;
75467;Laerm;64050;50.634;3.062;2023-04-07T00:13:38;50.16;46.27;59.41;;
75467;Laerm;64050;50.634;3.062;2023-04-07T00:16:03;48.60;37.89;52.73;;
75467;Laerm;64050;50.634;3.062;2023-04-07T00:18:29;49.02;37.27;60.04;;
75467;Laerm;64050;50.634;3.062;2023-04-07T00:20:54;49.70;40.40;54.45;;
75467;Laerm;64050;50.634;3.062;2023-04-07T00:23:20;41.28;36.47;51.03;;
75467;Laerm;64050;50.634;3.062;2023-04-07T00:25:46;48.18;36.42;52.46;;
75467;Laerm;64050;50.634;3.062;2023-04-07T00:28:12;48.59;36.08;52.82;;
75467;Laerm;64050;50.634;3.062;2023-04-07T00:30:37;50.28;34.99;59.00;;
75467;Laerm;64050;50.634;3.062;2023-04-07T00:33:02;49.54;36.57;57.57;;
75467;Laerm;64050;50.634;3.062;2023-04-07T00:35:27;42.71;35.89;60.49;;
75467;Laerm;64050;50.634;3.062;2023-04-07T00:37:52;49.52;40.89;55.30;;
75467;Laerm;64050;50.634;3.062;2023-04-07T00:40:18;48.12;35.09;53.34;;
75467;Laerm;64050;50.634;3.062;2023-04-07T00:42:43;44.94;34.34;52.70;;
75467;Laerm;64050;50.634;3.062;2023-04-07T00:45:08;49.04;34.22;55.76;;
75467;Laerm;64050;50.634;3.062;2023-04-07T00:47:35;39.23;35.11;50.87;;
75467;Laerm;64050;50.634;3.062;2023-04-07T00:50:02;40.29;34.89;51.15;;
75467;Laerm;64050;50.634;3.062;2023-04-07T00:52:27;45.10;35.28;52.87;;
75467;Laerm;64050;50.634;3.062;2023-04-07T00:54:54;49.64;45.61;52.84;;
75467;Laerm;64050;50.634;3.062;2023-04-07T00:57:20;46.94;34.65;52.50;;
75467;Laerm;64050;50.634;3.062;2023-04-07T00:59:46;49.36;35.51;54.34;;
75467;Laerm;64050;50.634;3.062;2023-04-07T01:02:15;39.50;34.68;49.32;;
75467;Laerm;64050;50.634;3.062;2023-04-07T01:04:53;43.23;35.17;59.22;;
75467;Laerm;64050;50.634;3.062;2023-04-07T01:07:26;39.86;34.51;55.35;;
75467;Laerm;64050;50.634;3.062;2023-04-07T01:10:11;50.66;37.08;61.15;;
75467;Laerm;64050;50.634;3.062;2023-04-07T01:15:11;49.27;39.66;53.15;;
75467;Laerm;64050;50.634;3.062;2023-04-07T01:17:41;47.48;35.45;52.18;;
75467;Laerm;64050;50.634;3.062;2023-04-07T01:20:07;42.89;34.35;52.38;;
75467;Laerm;64050;50.634;3.062;2023-04-07T01:22:54;48.93;35.85;55.91;;
75467;Laerm;64050;50.634;3.062;2023-04-07T01:30:37;50.32;34.87;61.51;;
75467;Laerm;64050;50.634;3.062;2023-04-07T01:33:03;39.25;35.20;52.01;;
75467;Laerm;64050;50.634;3.062;2023-04-07T01:35:31;49.17;35.98;53.48;;
75467;Laerm;64050;50.634;3.062;2023-04-07T01:37:57;47.88;35.50;53.37;;
75467;Laerm;64050;50.634;3.062;2023-04-07T01:40:24;42.76;35.33;52.52;;
75467;Laerm;64050;50.634;3.062;2023-04-07T01:42:49;49.53;35.61;62.44;;
75467;Laerm;64050;50.634;3.062;2023-04-07T01:45:15;38.72;35.41;46.64;;
75467;Laerm;64050;50.634;3.062;2023-04-07T01:47:42;39.66;34.35;48.65;;
75467;Laerm;64050;50.634;3.062;2023-04-07T01:50:08;47.89;34.33;55.66;;
75467;Laerm;64050;50.634;3.062;2023-04-07T01:52:34;47.26;35.98;52.94;;
75467;Laerm;64050;50.634;3.062;2023-04-07T01:55:00;43.48;34.55;52.53;;
75467;Laerm;64050;50.634;3.062;2023-04-07T01:57:25;49.77;45.73;52.46;;
75467;Laerm;64050;50.634;3.062;2023-04-07T01:59:51;44.75;34.46;53.10;;
75467;Laerm;64050;50.634;3.062;2023-04-07T02:02:17;41.40;34.89;55.83;;
75467;Laerm;64050;50.634;3.062;2023-04-07T02:07:21;38.71;34.46;51.55;;
75467;Laerm;64050;50.634;3.062;2023-04-07T02:09:49;40.32;34.73;54.31;;
75467;Laerm;64050;50.634;3.062;2023-04-07T02:12:15;45.98;34.97;62.10;;
75467;Laerm;64050;50.634;3.062;2023-04-07T02:14:41;47.57;35.90;52.17;;
75467;Laerm;64050;50.634;3.062;2023-04-07T02:17:06;48.46;35.19;52.53;;
75467;Laerm;64050;50.634;3.062;2023-04-07T02:19:32;48.60;35.74;53.51;;
75467;Laerm;64050;50.634;3.062;2023-04-07T02:22:00;46.01;34.74;55.49;;
75467;Laerm;64050;50.634;3.062;2023-04-07T02:24:26;39.18;34.17;50.51;;
75467;Laerm;64050;50.634;3.062;2023-04-07T02:26:51;39.44;34.34;48.93;;
75467;Laerm;64050;50.634;3.062;2023-04-07T02:29:17;37.57;34.38;45.46;;
75467;Laerm;64050;50.634;3.062;2023-04-07T02:31:42;49.59;39.27;52.52;;
75467;Laerm;64050;50.634;3.062;2023-04-07T02:34:07;39.50;34.22;50.88;;
75467;Laerm;64050;50.634;3.062;2023-04-07T02:36:32;49.52;35.85;52.51;;
75467;Laerm;64050;50.634;3.062;2023-04-07T02:38:57;46.90;35.83;54.80;;
75467;Laerm;64050;50.634;3.062;2023-04-07T02:41:23;38.66;34.83;47.57;;
75467;Laerm;64050;50.634;3.062;2023-04-07T02:43:48;47.39;34.92;52.22;;
75467;Laerm;64050;50.634;3.062;2023-04-07T02:46:13;46.40;34.35;52.45;;
75467;Laerm;64050;50.634;3.062;2023-04-07T02:48:38;37.64;33.41;49.88;;
75467;Laerm;64050;50.634;3.062;2023-04-07T02:51:04;39.01;34.03;44.11;;
75467;Laerm;64050;50.634;3.062;2023-04-07T02:53:29;43.79;34.36;56.32;;
75467;Laerm;64050;50.634;3.062;2023-04-07T02:55:55;49.81;45.90;52.60;;
75467;Laerm;64050;50.634;3.062;2023-04-07T02:58:20;46.63;36.16;52.90;;
75467;Laerm;64050;50.634;3.062;2023-04-07T03:00:46;49.55;38.35;53.70;;
75467;Laerm;64050;50.634;3.062;2023-04-07T03:03:12;39.50;34.18;50.15;;
75467;Laerm;64050;50.634;3.062;2023-04-07T03:05:37;39.62;33.92;52.44;;
75467;Laerm;64050;50.634;3.062;2023-04-07T03:08:02;40.93;34.12;52.86;;
75467;Laerm;64050;50.634;3.062;2023-04-07T03:10:27;43.87;35.85;54.47;;
75467;Laerm;64050;50.634;3.062;2023-04-07T03:12:52;49.30;35.89;52.49;;
75467;Laerm;64050;50.634;3.062;2023-04-07T03:15:18;40.05;35.26;49.89;;
75467;Laerm;64050;50.634;3.062;2023-04-07T03:17:43;49.58;35.68;52.63;;
75467;Laerm;64050;50.634;3.062;2023-04-07T03:20:08;46.71;35.06;53.80;;
75467;Laerm;64050;50.634;3.062;2023-04-07T03:22:33;39.64;34.23;48.03;;
75467;Laerm;64050;50.634;3.062;2023-04-07T03:24:59;46.19;35.92;57.85;;
75467;Laerm;64050;50.634;3.062;2023-04-07T03:27:24;48.36;35.04;52.90;;
75467;Laerm;64050;50.634;3.062;2023-04-07T03:29:51;38.53;34.57;46.56;;
75467;Laerm;64050;50.634;3.062;2023-04-07T03:32:16;39.76;34.93;48.46;;
75467;Laerm;64050;50.634;3.062;2023-04-07T03:34:41;43.52;35.30;53.58;;
75467;Laerm;64050;50.634;3.062;2023-04-07T03:37:06;50.12;45.74;54.87;;
75467;Laerm;64050;50.634;3.062;2023-04-07T03:39:31;47.05;37.03;53.07;;
75467;Laerm;64050;50.634;3.062;2023-04-07T03:41:57;49.53;38.44;53.66;;
75467;Laerm;64050;50.634;3.062;2023-04-07T03:44:22;43.57;37.98;54.89;;
75467;Laerm;64050;50.634;3.062;2023-04-07T03:46:47;42.50;38.01;49.25;;
75467;Laerm;64050;50.634;3.062;2023-04-07T03:49:14;43.19;37.82;54.25;;
75467;Laerm;64050;50.634;3.062;2023-04-07T03:51:40;43.39;38.02;51.39;;
75467;Laerm;64050;50.634;3.062;2023-04-07T03:54:05;48.81;38.79;54.11;;
75467;Laerm;64050;50.634;3.062;2023-04-07T03:56:30;48.21;39.45;61.29;;
75467;Laerm;64050;50.634;3.062;2023-04-07T03:58:56;44.27;38.41;52.96;;
75467;Laerm;64050;50.634;3.062;2023-04-07T04:01:21;50.31;46.26;54.08;;
75467;Laerm;64050;50.634;3.062;2023-04-07T04:03:47;45.44;38.55;61.38;;
75467;Laerm;64050;50.634;3.062;2023-04-07T04:06:12;41.71;37.91;49.08;;
75467;Laerm;64050;50.634;3.062;2023-04-07T04:08:38;49.21;38.60;58.57;;
75467;Laerm;64050;50.634;3.062;2023-04-07T04:11:03;47.36;38.74;55.94;;
75467;Laerm;64050;50.634;3.062;2023-04-07T04:13:28;44.18;38.38;54.39;;
75467;Laerm;64050;50.634;3.062;2023-04-07T04:15:53;43.76;39.20;53.88;;
75467;Laerm;64050;50.634;3.062;2023-04-07T04:18:19;44.40;38.92;55.65;;
75467;Laerm;64050;50.634;3.062;2023-04-07T04:20:44;44.71;38.66;60.25;;
75467;Laerm;64050;50.634;3.062;2023-04-07T04:23:09;49.85;38.61;57.12;;
75467;Laerm;64050;50.634;3.062;2023-04-07T04:25:35;42.24;38.03;49.87;;
75467;Laerm;64050;50.634;3.062;2023-04-07T04:28:03;46.35;38.92;55.49;;
75467;Laerm;64050;50.634;3.062;2023-04-07T04:30:28;48.14;39.46;52.95;;
75467;Laerm;64050;50.634;3.062;2023-04-07T04:32:53;49.62;41.88;53.10;;
75467;Laerm;64050;50.634;3.062;2023-04-07T04:35:19;48.17;39.47;58.77;;
75467;Laerm;64050;50.634;3.062;2023-04-07T04:37:44;49.70;40.43;57.79;;
75467;Laerm;64050;50.634;3.062;2023-04-07T04:40:10;45.22;39.34;51.77;;
75467;Laerm;64050;50.634;3.062;2023-04-07T04:42:35;50.16;40.07;53.69;;
75467;Laerm;64050;50.634;3.062;2023-04-07T04:45:00;47.51;40.82;58.11;;
75467;Laerm;64050;50.634;3.062;2023-04-07T04:47:26;47.80;39.36;55.43;;
75467;Laerm;64050;50.634;3.062;2023-04-07T04:49:51;49.92;40.97;56.91;;
75467;Laerm;64050;50.634;3.062;2023-04-07T04:52:16;49.35;42.55;56.75;;
75467;Laerm;64050;50.634;3.062;2023-04-07T04:54:41;48.89;40.51;55.01;;
75467;Laerm;64050;50.634;3.062;2023-04-07T04:57:07;45.56;40.95;53.34;;
75467;Laerm;64050;50.634;3.062;2023-04-07T04:59:32;48.29;41.46;55.55;;
75467;Laerm;64050;50.634;3.062;2023-04-07T05:01:57;53.06;42.12;70.40;;
75467;Laerm;64050;50.634;3.062;2023-04-07T05:04:23;47.12;40.09;59.86;;
75467;Laerm;64050;50.634;3.062;2023-04-07T05:06:48;51.02;41.27;67.76;;
75467;Laerm;64050;50.634;3.062;2023-04-07T05:09:13;48.33;41.35;69.30;;
75467;Laerm;64050;50.634;3.062;2023-04-07T05:11:39;49.37;40.83;61.47;;
75467;Laerm;64050;50.634;3.062;2023-04-07T05:14:05;51.16;42.68;63.11;;
75467;Laerm;64050;50.634;3.062;2023-04-07T05:16:30;47.60;41.31;63.44;;
75467;Laerm;64050;50.634;3.062;2023-04-07T05:18:55;50.60;44.21;56.45;;
75467;Laerm;64050;50.634;3.062;2023-04-07T05:21:20;45.70;41.16;59.70;;
75467;Laerm;64050;50.634;3.062;2023-04-07T05:23:46;48.66;39.87;66.63;;
75467;Laerm;64050;50.634;3.062;2023-04-07T05:26:11;48.63;41.52;60.48;;
75467;Laerm;64050;50.634;3.062;2023-04-07T05:28:36;48.94;41.14;70.50;;
75467;Laerm;64050;50.634;3.062;2023-04-07T05:31:01;52.78;47.51;62.09;;
75467;Laerm;64050;50.634;3.062;2023-04-07T05:33:26;49.84;45.89;55.99;;
75467;Laerm;64050;50.634;3.062;2023-04-07T05:35:52;49.48;41.49;63.58;;
75467;Laerm;64050;50.634;3.062;2023-04-07T05:38:17;50.08;41.88;62.40;;
75467;Laerm;64050;50.634;3.062;2023-04-07T05:40:42;45.44;40.53;62.45;;
75467;Laerm;64050;50.634;3.062;2023-04-07T05:43:07;49.37;41.28;66.34;;
75467;Laerm;64050;50.634;3.062;2023-04-07T05:45:33;46.49;41.36;58.87;;
75467;Laerm;64050;50.634;3.062;2023-04-07T05:47:58;47.50;41.60;65.75;;
75467;Laerm;64050;50.634;3.062;2023-04-07T05:50:23;49.19;41.87;53.50;;
75467;Laerm;64050;50.634;3.062;2023-04-07T05:52:48;49.44;41.40;56.38;;
75467;Laerm;64050;50.634;3.062;2023-04-07T05:55:13;50.21;42.47;57.13;;
75467;Laerm;64050;50.634;3.062;2023-04-07T05:57:39;48.26;42.97;54.67;;
75467;Laerm;64050;50.634;3.062;2023-04-07T06:00:04;46.38;42.24;52.67;;
75467;Laerm;64050;50.634;3.062;2023-04-07T06:02:30;47.40;42.89;60.12;;
75467;Laerm;64050;50.634;3.062;2023-04-07T06:04:55;51.52;42.96;62.53;;
75467;Laerm;64050;50.634;3.062;2023-04-07T06:07:20;55.92;43.36;75.42;;
75467;Laerm;64050;50.634;3.062;2023-04-07T06:09:45;54.01;46.26;79.31;;
75467;Laerm;64050;50.634;3.062;2023-04-07T06:12:11;55.45;43.27;77.02;;
75467;Laerm;64050;50.634;3.062;2023-04-07T06:14:36;59.61;42.36;84.11;;
75467;Laerm;64050;50.634;3.062;2023-04-07T06:17:02;60.14;45.08;85.70;;
75467;Laerm;64050;50.634;3.062;2023-04-07T06:19:27;56.02;43.70;80.99;;
75467;Laerm;64050;50.634;3.062;2023-04-07T06:21:52;55.67;43.34;76.73;;
75467;Laerm;64050;50.634;3.062;2023-04-07T06:24:18;53.24;43.27;74.32;;
75467;Laerm;64050;50.634;3.062;2023-04-07T06:26:43;58.12;44.68;83.12;;
75467;Laerm;64050;50.634;3.062;2023-04-07T06:29:09;57.16;44.08;77.86;;
75467;Laerm;64050;50.634;3.062;2023-04-07T06:31:34;59.44;43.17;81.00;;
75467;Laerm;64050;50.634;3.062;2023-04-07T06:33:59;54.59;42.67;80.18;;
75467;Laerm;64050;50.634;3.062;2023-04-07T06:36:24;55.96;41.73;76.62;;
75467;Laerm;64050;50.634;3.062;2023-04-07T06:38:51;52.48;42.17;70.78;;
75467;Laerm;64050;50.634;3.062;2023-04-07T06:41:16;55.69;42.10;73.16;;
75467;Laerm;64050;50.634;3.062;2023-04-07T06:43:45;52.42;42.08;73.50;;
75467;Laerm;64050;50.634;3.062;2023-04-07T06:46:11;50.72;44.02;69.43;;
75467;Laerm;64050;50.634;3.062;2023-04-07T06:48:36;49.79;44.37;58.99;;
75467;Laerm;64050;50.634;3.062;2023-04-07T06:51:01;52.13;44.18;71.60;;
75467;Laerm;64050;50.634;3.062;2023-04-07T06:53:27;49.64;43.07;66.08;;
75467;Laerm;64050;50.634;3.062;2023-04-07T06:56:01;50.76;42.73;72.58;;
75467;Laerm;64050;50.634;3.062;2023-04-07T06:58:26;54.17;44.24;73.26;;
75467;Laerm;64050;50.634;3.062;2023-04-07T07:00:51;51.90;46.99;60.59;;
75467;Laerm;64050;50.634;3.062;2023-04-07T07:03:17;54.16;42.75;67.11;;
75467;Laerm;64050;50.634;3.062;2023-04-07T07:05:42;56.52;46.22;65.37;;
75467;Laerm;64050;50.634;3.062;2023-04-07T07:08:07;52.76;44.15;79.01;;
75467;Laerm;64050;50.634;3.062;2023-04-07T07:10:32;49.27;43.06;72.89;;
75467;Laerm;64050;50.634;3.062;2023-04-07T07:12:57;47.60;42.59;57.06;;
75467;Laerm;64050;50.634;3.062;2023-04-07T07:15:23;50.67;44.50;77.02;;
75467;Laerm;64050;50.634;3.062;2023-04-07T07:17:48;50.93;44.00;66.79;;
75467;Laerm;64050;50.634;3.062;2023-04-07T07:20:13;46.88;43.14;53.72;;
75467;Laerm;64050;50.634;3.062;2023-04-07T07:22:38;48.88;43.07;69.56;;
75467;Laerm;64050;50.634;3.062;2023-04-07T07:25:04;51.49;44.57;70.43;;
75467;Laerm;64050;50.634;3.062;2023-04-07T07:27:29;49.52;43.04;63.89;;
75467;Laerm;64050;50.634;3.062;2023-04-07T07:29:54;52.83;43.64;74.85;;
75467;Laerm;64050;50.634;3.062;2023-04-07T07:32:20;48.38;43.55;70.79;;
75467;Laerm;64050;50.634;3.062;2023-04-07T07:34:45;49.00;43.72;70.00;;
75467;Laerm;64050;50.634;3.062;2023-04-07T07:37:10;48.74;44.88;67.38;;
75467;Laerm;64050;50.634;3.062;2023-04-07T07:39:36;53.65;44.97;72.58;;
75467;Laerm;64050;50.634;3.062;2023-04-07T07:42:01;54.49;47.02;73.79;;
75467;Laerm;64050;50.634;3.062;2023-04-07T07:44:26;54.41;45.21;75.44;;
75467;Laerm;64050;50.634;3.062;2023-04-07T07:46:52;58.54;44.29;79.15;;
75467;Laerm;64050;50.634;3.062;2023-04-07T07:49:17;51.94;44.24;68.55;;
75467;Laerm;64050;50.634;3.062;2023-04-07T07:51:42;50.57;43.05;68.77;;
75467;Laerm;64050;50.634;3.062;2023-04-07T07:54:08;54.20;43.76;70.75;;
75467;Laerm;64050;50.634;3.062;2023-04-07T07:56:33;50.48;43.89;65.25;;
75467;Laerm;64050;50.634;3.062;2023-04-07T07:58:59;53.36;44.81;73.23;;
75467;Laerm;64050;50.634;3.062;2023-04-07T08:01:24;54.44;45.00;75.57;;
75467;Laerm;64050;50.634;3.062;2023-04-07T08:03:49;52.78;43.77;70.94;;
75467;Laerm;64050;50.634;3.062;2023-04-07T08:06:15;52.48;45.24;71.97;;
75467;Laerm;64050;50.634;3.062;2023-04-07T08:08:40;50.46;44.59;73.32;;
75467;Laerm;64050;50.634;3.062;2023-04-07T08:11:05;54.13;44.19;74.62;;
75467;Laerm;64050;50.634;3.062;2023-04-07T08:13:31;50.20;44.31;66.72;;
75467;Laerm;64050;50.634;3.062;2023-04-07T08:15:56;52.87;43.52;70.95;;
75467;Laerm;64050;50.634;3.062;2023-04-07T08:18:21;54.04;44.44;72.29;;
75467;Laerm;64050;50.634;3.062;2023-04-07T08:20:47;52.77;45.16;71.01;;
75467;Laerm;64050;50.634;3.062;2023-04-07T08:23:12;51.19;44.86;67.06;;
75467;Laerm;64050;50.634;3.062;2023-04-07T08:25:37;55.02;47.54;72.74;;
75467;Laerm;64050;50.634;3.062;2023-04-07T08:28:06;52.73;43.76;72.27;;
75467;Laerm;64050;50.634;3.062;2023-04-07T08:30:31;51.88;44.40;73.09;;
75467;Laerm;64050;50.634;3.062;2023-04-07T08:32:56;52.85;44.90;69.15;;
75467;Laerm;64050;50.634;3.062;2023-04-07T08:35:21;53.91;45.15;69.10;;
75467;Laerm;64050;50.634;3.062;2023-04-07T08:37:47;52.13;46.70;69.89;;
75467;Laerm;64050;50.634;3.062;2023-04-07T08:40:13;51.08;44.61;69.39;;
75467;Laerm;64050;50.634;3.062;2023-04-07T08:42:40;52.38;44.67;69.82;;
75467;Laerm;64050;50.634;3.062;2023-04-07T08:45:05;52.64;46.40;66.36;;
75467;Laerm;64050;50.634;3.062;2023-04-07T08:47:31;57.12;45.14;73.92;;
75467;Laerm;64050;50.634;3.062;2023-04-07T08:50:02;54.32;44.83;69.79;;
75467;Laerm;64050;50.634;3.062;2023-04-07T08:52:34;56.45;46.23;73.10;;
75467;Laerm;64050;50.634;3.062;2023-04-07T08:55:04;52.45;44.18;69.11;;
75467;Laerm;64050;50.634;3.062;2023-04-07T08:57:31;52.98;45.68;75.34;;
75467;Laerm;64050;50.634;3.062;2023-04-07T09:00:00;53.34;45.88;70.08;;
75467;Laerm;64050;50.634;3.062;2023-04-07T09:02:33;56.20;45.72;77.10;;
75467;Laerm;64050;50.634;3.062;2023-04-07T09:04:59;52.33;45.84;66.76;;
75467;Laerm;64050;50.634;3.062;2023-04-07T09:07:25;55.89;45.75;72.74;;
75467;Laerm;64050;50.634;3.062;2023-04-07T09:09:50;51.60;43.87;73.83;;
75467;Laerm;64050;50.634;3.062;2023-04-07T09:12:16;52.70;46.74;70.70;;
75467;Laerm;64050;50.634;3.062;2023-04-07T09:14:41;50.18;45.95;60.70;;
75467;Laerm;64050;50.634;3.062;2023-04-07T09:17:07;50.98;45.46;67.24;;
75467;Laerm;64050;50.634;3.062;2023-04-07T09:19:32;50.67;45.67;64.31;;
75467;Laerm;64050;50.634;3.062;2023-04-07T09:21:57;51.50;46.93;64.40;;
75467;Laerm;64050;50.634;3.062;2023-04-07T09:24:26;52.28;45.73;64.36;;
75467;Laerm;64050;50.634;3.062;2023-04-07T09:27:25;52.59;45.03;71.55;;
75467;Laerm;64050;50.634;3.062;2023-04-07T09:29:44;53.33;45.59;68.90;;
75467;Laerm;64050;50.634;3.062;2023-04-07T09:32:10;52.86;45.99;69.72;;
75467;Laerm;64050;50.634;3.062;2023-04-07T09:34:39;54.42;46.30;74.62;;
75467;Laerm;64050;50.634;3.062;2023-04-07T09:37:05;57.39;45.75;75.42;;
75467;Laerm;64050;50.634;3.062;2023-04-07T09:39:31;54.82;44.79;74.12;;
75467;Laerm;64050;50.634;3.062;2023-04-07T09:41:56;56.22;48.55;73.11;;
75467;Laerm;64050;50.634;3.062;2023-04-07T09:44:22;52.89;47.57;62.16;;
75467;Laerm;64050;50.634;3.062;2023-04-07T09:46:54;51.85;45.85;66.09;;
75467;Laerm;64050;50.634;3.062;2023-04-07T09:49:20;51.36;46.25;63.96;;
75467;Laerm;64050;50.634;3.062;2023-04-07T09:51:56;56.41;46.20;76.84;;
75467;Laerm;64050;50.634;3.062;2023-04-07T09:54:37;54.70;47.35;70.45;;
75467;Laerm;64050;50.634;3.062;2023-04-07T09:57:04;53.39;47.90;76.51;;
75467;Laerm;64050;50.634;3.062;2023-04-07T09:59:30;52.05;47.65;62.90;;
75467;Laerm;64050;50.634;3.062;2023-04-07T10:01:56;52.59;48.35;69.65;;
75467;Laerm;64050;50.634;3.062;2023-04-07T10:04:22;52.77;47.33;71.15;;
75467;Laerm;64050;50.634;3.062;2023-04-07T10:06:48;52.09;48.05;65.57;;
75467;Laerm;64050;50.634;3.062;2023-04-07T10:09:13;51.04;47.44;60.18;;
75467;Laerm;64050;50.634;3.062;2023-04-07T10:11:39;51.54;47.28;66.52;;
75467;Laerm;64050;50.634;3.062;2023-04-07T10:14:05;51.51;47.49;64.02;;
75467;Laerm;64050;50.634;3.062;2023-04-07T10:16:31;55.15;48.69;63.54;;
75467;Laerm;64050;50.634;3.062;2023-04-07T10:18:56;60.22;55.33;77.09;;
75467;Laerm;64050;50.634;3.062;2023-04-07T10:21:22;58.70;54.98;64.51;;
75467;Laerm;64050;50.634;3.062;2023-04-07T10:23:53;60.42;55.84;76.45;;
75467;Laerm;64050;50.634;3.062;2023-04-07T10:26:24;60.73;57.06;65.37;;
75467;Laerm;64050;50.634;3.062;2023-04-07T10:28:54;59.67;55.84;73.19;;
75467;Laerm;64050;50.634;3.062;2023-04-07T10:31:21;59.10;55.50;68.25;;
75467;Laerm;64050;50.634;3.062;2023-04-07T10:33:48;59.09;55.60;71.28;;
75467;Laerm;64050;50.634;3.062;2023-04-07T10:36:13;59.79;55.28;81.10;;
75467;Laerm;64050;50.634;3.062;2023-04-07T10:38:44;58.02;54.61;63.29;;
75467;Laerm;64050;50.634;3.062;2023-04-07T10:41:30;58.35;54.83;66.70;;
75467;Laerm;64050;50.634;3.062;2023-04-07T10:43:56;58.26;54.90;64.52;;
75467;Laerm;64050;50.634;3.062;2023-04-07T10:46:22;58.02;54.96;66.15;;
75467;Laerm;64050;50.634;3.062;2023-04-07T10:49:07;58.33;55.12;63.21;;
75467;Laerm;64050;50.634;3.062;2023-04-07T10:51:32;58.77;55.26;67.49;;
75467;Laerm;64050;50.634;3.062;2023-04-07T10:54:13;58.55;54.96;67.53;;
75467;Laerm;64050;50.634;3.062;2023-04-07T10:59:23;58.28;54.24;66.18;;
75467;Laerm;64050;50.634;3.062;2023-04-07T11:01:58;57.47;53.38;64.13;;
75467;Laerm;64050;50.634;3.062;2023-04-07T11:04:37;57.66;54.27;65.76;;
75467;Laerm;64050;50.634;3.062;2023-04-07T11:07:02;57.62;54.16;64.10;;
75467;Laerm;64050;50.634;3.062;2023-04-07T11:09:27;57.75;54.14;63.86;;
75467;Laerm;64050;50.634;3.062;2023-04-07T11:11:52;57.80;53.90;63.60;;
75467;Laerm;64050;50.634;3.062;2023-04-07T11:14:26;57.94;54.21;65.09;;
75467;Laerm;64050;50.634;3.062;2023-04-07T11:16:52;57.73;54.31;63.93;;
75467;Laerm;64050;50.634;3.062;2023-04-07T11:19:17;58.26;54.76;71.31;;
75467;Laerm;64050;50.634;3.062;2023-04-07T11:21:43;58.96;54.14;66.84;;
75467;Laerm;64050;50.634;3.062;2023-04-07T11:24:08;58.43;54.84;68.03;;
75467;Laerm;64050;50.634;3.062;2023-04-07T11:26:40;58.94;55.31;72.53;;
75467;Laerm;64050;50.634;3.062;2023-04-07T11:29:05;58.46;53.63;69.27;;
75467;Laerm;64050;50.634;3.062;2023-04-07T11:31:30;58.52;53.83;70.29;;
75467;Laerm;64050;50.634;3.062;2023-04-07T11:33:57;58.73;53.72;75.60;;
75467;Laerm;64050;50.634;3.062;2023-04-07T11:36:27;57.66;53.24;68.22;;
75467;Laerm;64050;50.634;3.062;2023-04-07T11:38:52;59.29;54.01;77.06;;
75467;Laerm;64050;50.634;3.062;2023-04-07T11:41:18;57.58;53.54;74.34;;
75467;Laerm;64050;50.634;3.062;2023-04-07T11:43:43;57.67;53.57;67.15;;
75467;Laerm;64050;50.634;3.062;2023-04-07T11:46:09;57.72;53.87;67.26;;
75467;Laerm;64050;50.634;3.062;2023-04-07T11:48:36;57.91;53.79;67.15;;
75467;Laerm;64050;50.634;3.062;2023-04-07T11:51:02;58.28;54.10;73.76;;
75467;Laerm;64050;50.634;3.062;2023-04-07T11:53:28;57.56;53.51;65.74;;
75467;Laerm;64050;50.634;3.062;2023-04-07T11:58:24;57.46;53.73;62.95;;
75467;Laerm;64050;50.634;3.062;2023-04-07T12:00:53;57.34;54.10;64.66;;
75467;Laerm;64050;50.634;3.062;2023-04-07T12:03:19;56.32;52.32;67.33;;
75467;Laerm;64050;50.634;3.062;2023-04-07T12:05:45;59.92;53.48;88.18;;
75467;Laerm;64050;50.634;3.062;2023-04-07T12:08:10;62.91;54.39;87.61;;
75467;Laerm;64050;50.634;3.062;2023-04-07T12:10:35;57.75;53.65;74.14;;
75467;Laerm;64050;50.634;3.062;2023-04-07T12:13:04;58.22;53.44;77.95;;
75467;Laerm;64050;50.634;3.062;2023-04-07T12:15:30;59.65;53.39;82.89;;
75467;Laerm;64050;50.634;3.062;2023-04-07T12:17:55;58.27;53.85;79.74;;
75467;Laerm;64050;50.634;3.062;2023-04-07T12:20:21;57.84;52.73;78.96;;
75467;Laerm;64050;50.634;3.062;2023-04-07T12:22:46;56.85;52.63;64.56;;
75467;Laerm;64050;50.634;3.062;2023-04-07T12:25:11;56.96;52.98;66.62;;
75467;Laerm;64050;50.634;3.062;2023-04-07T12:27:36;57.38;52.88;68.78;;
75467;Laerm;64050;50.634;3.062;2023-04-07T12:30:02;58.55;53.59;76.06;;
75467;Laerm;64050;50.634;3.062;2023-04-07T12:32:28;57.54;53.11;72.21;;
75467;Laerm;64050;50.634;3.062;2023-04-07T12:34:53;57.21;54.24;61.49;;
75467;Laerm;64050;50.634;3.062;2023-04-07T12:37:18;57.10;53.65;64.46;;
75467;Laerm;64050;50.634;3.062;2023-04-07T12:39:44;58.38;53.61;71.03;;
75467;Laerm;64050;50.634;3.062;2023-04-07T12:42:09;57.91;53.94;68.24;;
75467;Laerm;64050;50.634;3.062;2023-04-07T12:44:36;57.65;52.98;65.86;;
75467;Laerm;64050;50.634;3.062;2023-04-07T12:47:01;57.60;53.53;76.60;;
75467;Laerm;64050;50.634;3.062;2023-04-07T12:49:26;57.77;54.14;69.71;;
75467;Laerm;64050;50.634;3.062;2023-04-07T12:51:51;57.26;53.69;66.44;;
75467;Laerm;64050;50.634;3.062;2023-04-07T12:54:17;56.90;53.46;63.92;;
75467;Laerm;64050;50.634;3.062;2023-04-07T12:56:42;56.99;53.12;62.37;;
75467;Laerm;64050;50.634;3.062;2023-04-07T12:59:07;57.77;53.90;65.27;;
75467;Laerm;64050;50.634;3.062;2023-04-07T13:01:33;57.94;53.61;67.56;;
75467;Laerm;64050;50.634;3.062;2023-04-07T13:03:59;57.63;53.99;65.14;;
75467;Laerm;64050;50.634;3.062;2023-04-07T13:06:24;57.62;53.76;64.88;;
75467;Laerm;64050;50.634;3.062;2023-04-07T13:08:50;57.13;52.66;64.96;;
75467;Laerm;64050;50.634;3.062;2023-04-07T13:11:15;57.42;53.42;71.77;;
75467;Laerm;64050;50.634;3.062;2023-04-07T13:13:40;57.65;52.91;67.95;;
75467;Laerm;64050;50.634;3.062;2023-04-07T13:16:06;57.78;53.45;64.05;;
75467;Laerm;64050;50.634;3.062;2023-04-07T13:18:31;57.86;53.82;63.87;;
75467;Laerm;64050;50.634;3.062;2023-04-07T13:20:57;58.10;54.39;66.62;;
75467;Laerm;64050;50.634;3.062;2023-04-07T13:23:22;57.53;53.43;63.60;;
75467;Laerm;64050;50.634;3.062;2023-04-07T13:25:47;57.34;53.54;67.78;;
75467;Laerm;64050;50.634;3.062;2023-04-07T13:28:13;57.99;53.82;70.98;;
75467;Laerm;64050;50.634;3.062;2023-04-07T13:30:40;57.65;53.84;70.31;;
75467;Laerm;64050;50.634;3.062;2023-04-07T13:33:05;57.99;54.04;71.29;;
75467;Laerm;64050;50.634;3.062;2023-04-07T13:35:30;57.50;54.16;65.87;;
75467;Laerm;64050;50.634;3.062;2023-04-07T13:37:59;57.45;53.72;62.80;;
75467;Laerm;64050;50.634;3.062;2023-04-07T13:40:24;56.84;52.97;63.34;;
75467;Laerm;64050;50.634;3.062;2023-04-07T13:42:50;57.41;53.45;66.62;;
75467;Laerm;64050;50.634;3.062;2023-04-07T13:45:15;57.54;53.94;69.69;;
75467;Laerm;64050;50.634;3.062;2023-04-07T13:47:40;57.60;53.60;65.87;;
75467;Laerm;64050;50.634;3.062;2023-04-07T13:50:05;57.73;53.69;68.19;;
75467;Laerm;64050;50.634;3.062;2023-04-07T13:52:31;57.60;53.57;64.63;;
75467;Laerm;64050;50.634;3.062;2023-04-07T13:54:59;57.80;53.91;67.14;;